createdAt,value
2023-02-03T00:01:22.938Z,19.95
2023-02-03T00:03:51.062Z,19.17
2023-02-03T00:06:19.242Z,19.60
2023-02-03T00:08:48.531Z,18.92
2023-02-03T00:11:16.644Z,20.13
2023-02-03T00:13:44.987Z,19.52
2023-02-03T00:16:14.394Z,19.58
2023-02-03T00:18:42.428Z,19.98
2023-02-03T00:21:10.440Z,19.27
2023-02-03T00:23:38.449Z,19.00
2023-02-03T00:26:10.834Z,19.45
2023-02-03T00:28:40.577Z,20.50
2023-02-03T00:31:17.836Z,20.05
2023-02-03T00:33:47.496Z,20.20
2023-02-03T00:36:15.501Z,18.83
2023-02-03T00:38:43.582Z,18.05
2023-02-03T00:41:11.573Z,18.80
2023-02-03T00:43:39.578Z,19.00
2023-02-03T00:46:07.619Z,18.48
2023-02-03T00:48:37.969Z,19.65
2023-02-03T00:51:06.611Z,19.02
2023-02-03T00:53:34.776Z,18.05
2023-02-03T00:56:03.000Z,18.80
2023-02-03T00:58:31.070Z,17.30
2023-02-03T01:00:59.160Z,16.65
2023-02-03T01:03:27.366Z,16.70
2023-02-03T01:05:56.722Z,18.02
2023-02-03T01:08:25.169Z,15.77
2023-02-03T01:10:53.145Z,16.05
2023-02-03T01:13:22.588Z,14.95
2023-02-03T01:15:50.625Z,16.02
2023-02-03T01:18:18.726Z,16.17
2023-02-03T01:20:46.723Z,15.68
2023-02-03T01:23:16.092Z,14.73
2023-02-03T01:25:44.167Z,16.48
2023-02-03T01:28:12.289Z,16.08
2023-02-03T01:30:40.502Z,15.73
2023-02-03T01:33:08.583Z,15.70
2023-02-03T01:35:36.831Z,18.08
2023-02-03T01:38:04.880Z,17.70
2023-02-03T01:40:34.439Z,15.70
2023-02-03T01:43:02.501Z,15.98
2023-02-03T01:45:30.595Z,15.07
2023-02-03T01:48:00.825Z,13.57
2023-02-03T01:50:33.225Z,14.68
2023-02-03T01:53:04.582Z,15.43
2023-02-03T01:55:40.484Z,12.98
2023-02-03T01:58:12.426Z,15.18
2023-02-03T02:00:40.573Z,15.02
2023-02-03T02:03:09.874Z,15.80
2023-02-03T02:05:44.744Z,14.82
2023-02-03T02:08:14.710Z,14.27
2023-02-03T02:10:44.119Z,14.45
2023-02-03T02:13:13.441Z,13.45
2023-02-03T02:15:59.589Z,12.98
2023-02-03T02:18:41.913Z,12.57
2023-02-03T02:22:10.161Z,11.93
2023-02-03T02:25:03.760Z,11.70
2023-02-03T02:28:08.819Z,9.80
2023-02-03T02:31:03.376Z,9.15
2023-02-03T02:33:41.933Z,9.18
2023-02-03T02:36:24.143Z,9.23
2023-02-03T02:38:59.473Z,8.82
2023-02-03T02:41:35.011Z,8.30
2023-02-03T02:44:09.781Z,8.95
2023-02-03T02:46:42.745Z,7.55
2023-02-03T02:49:18.205Z,7.80
2023-02-03T02:51:48.518Z,9.15
2023-02-03T02:54:22.683Z,7.45
2023-02-03T02:56:55.926Z,8.35
2023-02-03T02:59:25.057Z,8.35
2023-02-03T03:01:53.242Z,7.72
2023-02-03T03:04:26.187Z,7.95
2023-02-03T03:07:00.723Z,8.95
2023-02-03T03:09:35.970Z,7.65
2023-02-03T03:12:11.223Z,8.27
2023-02-03T03:14:42.673Z,7.38
2023-02-03T03:17:14.365Z,7.18
2023-02-03T03:19:49.690Z,7.80
2023-02-03T03:22:18.666Z,6.90
2023-02-03T03:24:51.556Z,5.90
2023-02-03T03:27:24.314Z,7.68
2023-02-03T03:29:55.873Z,7.10
2023-02-03T03:32:24.509Z,7.15
2023-02-03T03:34:54.012Z,8.65
2023-02-03T03:37:29.788Z,8.80
2023-02-03T03:40:00.368Z,6.82
2023-02-03T03:42:34.322Z,6.90
2023-02-03T03:45:07.157Z,7.03
2023-02-03T03:47:40.836Z,6.57
2023-02-03T03:50:15.302Z,6.15
2023-02-03T03:52:46.813Z,7.80
2023-02-03T03:55:17.516Z,4.68
2023-02-03T03:57:53.110Z,8.00
2023-02-03T04:00:24.266Z,7.03
2023-02-03T04:02:57.888Z,5.35
2023-02-03T04:05:27.913Z,4.93
2023-02-03T04:07:56.115Z,6.28
2023-02-03T04:10:31.413Z,7.25
2023-02-03T04:13:00.017Z,5.97
2023-02-03T04:15:28.705Z,5.63
2023-02-03T04:17:57.391Z,8.45
2023-02-03T04:20:26.981Z,7.28
2023-02-03T04:22:55.243Z,6.72
2023-02-03T04:25:24.035Z,9.68
2023-02-03T04:27:52.065Z,8.23
2023-02-03T04:30:20.264Z,7.47
2023-02-03T04:32:48.398Z,6.97
2023-02-03T04:35:17.144Z,7.65
2023-02-03T04:37:46.588Z,7.22
2023-02-03T04:40:14.723Z,7.32
2023-02-03T04:42:43.060Z,7.47
2023-02-03T04:45:12.911Z,7.45
2023-02-03T04:47:41.167Z,10.02
2023-02-03T04:50:09.871Z,6.97
2023-02-03T04:52:37.920Z,8.23
2023-02-03T04:55:30.067Z,7.95
2023-02-03T04:57:58.897Z,7.20
2023-02-03T05:00:27.925Z,6.70
2023-02-03T05:02:56.320Z,6.82
2023-02-03T05:05:24.440Z,9.10
2023-02-03T05:07:52.516Z,7.82
2023-02-03T05:10:20.954Z,6.45
2023-02-03T05:12:51.128Z,6.38
2023-02-03T05:15:19.305Z,6.57
2023-02-03T05:17:47.307Z,6.40
2023-02-03T05:20:15.406Z,6.35
2023-02-03T05:22:43.406Z,6.07
2023-02-03T05:25:11.679Z,6.93
2023-02-03T05:27:40.451Z,6.25
2023-02-03T05:30:12.730Z,6.97
2023-02-03T05:32:40.709Z,6.07
2023-02-03T05:35:09.395Z,6.93
2023-02-03T05:37:37.344Z,5.50
2023-02-03T05:40:24.888Z,6.30
2023-02-03T05:42:52.976Z,5.72
2023-02-03T05:45:22.337Z,6.65
2023-02-03T05:47:50.319Z,5.97
2023-02-03T05:50:19.147Z,5.55
2023-02-03T05:52:47.277Z,5.28
2023-02-03T05:55:15.665Z,5.35
2023-02-03T05:57:44.472Z,5.82
2023-02-03T06:00:14.748Z,5.88
2023-02-03T06:02:44.101Z,5.30
2023-02-03T06:05:12.223Z,5.60
2023-02-03T06:07:40.234Z,6.40
2023-02-03T06:10:09.373Z,5.22
2023-02-03T06:12:39.392Z,5.25
2023-02-03T06:15:08.023Z,5.47
2023-02-03T06:17:36.912Z,5.50
2023-02-03T06:20:07.232Z,4.93
2023-02-03T06:22:35.840Z,5.05
2023-02-03T06:25:04.424Z,6.32
2023-02-03T06:27:32.407Z,6.43
2023-02-03T06:30:01.083Z,6.97
2023-02-03T06:32:29.195Z,6.80
2023-02-03T06:34:57.193Z,7.82
2023-02-03T06:37:26.535Z,7.07
2023-02-03T06:39:54.539Z,7.22
2023-02-03T06:42:22.525Z,7.13
2023-02-03T06:44:50.725Z,7.20
2023-02-03T06:47:18.702Z,7.05
2023-02-03T06:49:46.723Z,6.60
2023-02-03T06:52:15.445Z,7.20
2023-02-03T06:54:45.188Z,6.80
2023-02-03T06:57:13.230Z,6.35
2023-02-03T06:59:41.435Z,6.28
2023-02-03T07:02:11.827Z,6.03
2023-02-03T07:04:40.219Z,6.15
2023-02-03T07:07:08.247Z,6.25
2023-02-03T07:09:36.306Z,5.75
2023-02-03T07:12:06.054Z,4.75
2023-02-03T07:14:36.418Z,5.30
2023-02-03T07:17:04.572Z,5.55
2023-02-03T07:19:32.937Z,5.45
2023-02-03T07:22:01.152Z,5.38
2023-02-03T07:24:29.589Z,4.20
2023-02-03T07:26:57.571Z,4.40
2023-02-03T07:29:26.942Z,4.18
2023-02-03T07:31:55.003Z,4.35
2023-02-03T07:34:23.192Z,5.13
2023-02-03T07:36:51.145Z,4.57
2023-02-03T07:39:19.212Z,4.45
2023-02-03T07:41:47.337Z,4.38
2023-02-03T07:44:15.364Z,4.70
2023-02-03T07:46:45.585Z,4.47
2023-02-03T07:49:14.043Z,5.10
2023-02-03T07:51:42.031Z,5.30
2023-02-03T07:54:10.028Z,5.05
2023-02-03T07:56:38.033Z,4.65
2023-02-03T07:59:06.056Z,6.53
2023-02-03T08:01:34.151Z,4.55
2023-02-03T08:04:05.738Z,5.03
2023-02-03T08:06:34.155Z,5.55
2023-02-03T08:09:02.511Z,6.13
2023-02-03T08:11:32.474Z,5.40
2023-02-03T08:14:00.673Z,5.32
2023-02-03T08:16:28.723Z,5.55
2023-02-03T08:18:57.756Z,5.80
2023-02-03T08:21:27.205Z,5.80
2023-02-03T08:23:55.180Z,5.10
2023-02-03T08:26:23.683Z,5.53
2023-02-03T08:28:51.876Z,4.57
2023-02-03T08:31:20.259Z,4.90
2023-02-03T08:33:48.424Z,5.18
2023-02-03T08:36:16.506Z,5.05
2023-02-03T08:38:45.856Z,4.65
2023-02-03T08:41:17.873Z,5.72
2023-02-03T08:43:46.302Z,4.82
2023-02-03T08:46:15.105Z,5.28
2023-02-03T08:48:43.106Z,6.35
2023-02-03T08:51:12.556Z,5.18
2023-02-03T08:53:40.645Z,5.45
2023-02-03T08:56:12.362Z,6.07
2023-02-03T08:58:41.048Z,5.40
2023-02-03T09:01:11.254Z,6.28
2023-02-03T09:03:40.732Z,5.35
2023-02-03T09:06:11.677Z,5.93
2023-02-03T09:08:39.856Z,5.70
2023-02-03T09:11:11.614Z,5.97
2023-02-03T09:13:40.361Z,6.13
2023-02-03T09:16:09.244Z,4.90
2023-02-03T09:18:37.487Z,5.75
2023-02-03T09:21:07.514Z,4.60
2023-02-03T09:23:35.755Z,5.68
2023-02-03T09:26:03.927Z,4.82
2023-02-03T09:28:33.447Z,4.85
2023-02-03T09:31:02.121Z,5.40
2023-02-03T09:33:30.217Z,5.03
2023-02-03T09:35:59.578Z,5.00
2023-02-03T09:38:28.591Z,4.68
2023-02-03T09:41:11.257Z,5.65
2023-02-03T09:43:47.677Z,4.57
2023-02-03T09:46:20.995Z,4.88
2023-02-03T09:48:53.552Z,4.22
2023-02-03T09:51:24.866Z,3.95
2023-02-03T09:53:59.409Z,4.00
2023-02-03T09:56:32.849Z,3.50
2023-02-03T09:59:02.582Z,3.47
2023-02-03T10:01:39.356Z,4.25
2023-02-03T10:04:24.463Z,4.32
2023-02-03T10:06:53.783Z,4.55
2023-02-03T10:09:34.191Z,4.70
2023-02-03T10:12:19.443Z,4.47
2023-02-03T10:15:04.155Z,4.43
2023-02-03T10:17:34.923Z,4.45
2023-02-03T10:20:08.023Z,4.78
2023-02-03T10:22:41.349Z,4.47
2023-02-03T10:25:20.768Z,4.30
2023-02-03T10:27:50.382Z,3.63
2023-02-03T10:30:22.920Z,4.32
2023-02-03T10:32:54.118Z,4.05
2023-02-03T10:35:24.779Z,4.55
2023-02-03T10:37:58.444Z,10.20
2023-02-03T10:40:29.193Z,6.95
2023-02-03T10:43:14.824Z,7.43
2023-02-03T10:45:44.193Z,5.10
2023-02-03T10:48:17.209Z,4.88
2023-02-03T10:50:49.803Z,4.53
2023-02-03T10:53:24.554Z,4.68
2023-02-03T10:56:02.102Z,4.43
2023-02-03T10:58:33.235Z,5.13
2023-02-03T11:01:10.705Z,5.00
2023-02-03T11:03:42.068Z,5.72
2023-02-03T11:06:12.562Z,7.60
2023-02-03T11:08:42.843Z,6.47
2023-02-03T11:11:15.936Z,5.35
2023-02-03T11:13:44.350Z,7.28
2023-02-03T11:16:17.533Z,8.23
2023-02-03T11:18:52.304Z,6.63
2023-02-03T11:21:22.508Z,6.25
2023-02-03T11:23:57.456Z,5.45
2023-02-03T11:26:28.733Z,6.63
2023-02-03T11:29:00.345Z,7.32
2023-02-03T11:31:31.250Z,4.90
2023-02-03T11:34:03.567Z,4.30
2023-02-03T11:36:34.179Z,5.10
2023-02-03T11:39:11.962Z,5.00
2023-02-03T11:41:41.485Z,4.82
2023-02-03T11:44:17.194Z,5.32
2023-02-03T11:46:49.061Z,4.18
2023-02-03T11:50:00.152Z,4.45
2023-02-03T11:52:59.102Z,5.65
2023-02-03T11:55:38.989Z,7.32
2023-02-03T11:58:42.612Z,4.85
2023-02-03T12:01:19.946Z,3.78
2023-02-03T12:04:23.878Z,3.30
2023-02-03T12:07:23.749Z,3.47
2023-02-03T12:10:00.619Z,3.55
2023-02-03T12:12:46.699Z,3.92
2023-02-03T12:15:28.030Z,3.97
2023-02-03T12:18:12.178Z,5.18
2023-02-03T12:20:51.497Z,4.50
2023-02-03T12:23:31.627Z,4.38
2023-02-03T12:26:09.514Z,6.40
2023-02-03T12:28:46.220Z,4.80
2023-02-03T12:31:22.185Z,5.72
2023-02-03T12:33:55.108Z,5.57
2023-02-03T12:36:27.996Z,7.28
2023-02-03T12:39:01.585Z,7.60
2023-02-03T12:41:33.142Z,9.48
2023-02-03T12:44:06.604Z,7.80
2023-02-03T12:46:40.786Z,10.30
2023-02-03T12:49:19.466Z,8.82
2023-02-03T12:51:52.652Z,10.27
2023-02-03T12:54:34.085Z,11.88
2023-02-03T12:57:18.335Z,12.32
2023-02-03T13:00:05.738Z,12.23
2023-02-03T13:02:43.103Z,10.43
2023-02-03T13:05:22.275Z,10.57
2023-02-03T13:07:54.993Z,10.77
2023-02-03T13:10:32.795Z,10.90
2023-02-03T13:13:02.742Z,9.98
2023-02-03T13:15:38.717Z,9.93
2023-02-03T13:18:15.531Z,9.68
2023-02-03T13:20:43.983Z,10.18
2023-02-03T13:23:14.950Z,11.75
2023-02-03T13:25:59.040Z,14.30
2023-02-03T13:28:41.249Z,11.23
2023-02-03T13:31:19.693Z,9.52
2023-02-03T13:34:24.765Z,13.10
2023-02-03T13:37:23.428Z,9.90
2023-02-03T13:40:04.272Z,10.35
2023-02-03T13:42:38.333Z,9.48
2023-02-03T13:45:15.161Z,12.48
2023-02-03T13:47:48.274Z,10.25
2023-02-03T13:50:23.493Z,10.43
2023-02-03T13:52:59.121Z,13.73
2023-02-03T13:55:55.891Z,10.52
2023-02-03T13:58:27.755Z,9.27
2023-02-03T14:01:03.221Z,10.10
2023-02-03T14:03:45.460Z,9.55
2023-02-03T14:06:59.855Z,8.32
2023-02-03T14:09:47.744Z,12.60
2023-02-03T14:12:56.605Z,10.10
2023-02-03T14:15:32.123Z,11.15
2023-02-03T14:18:20.253Z,11.10
2023-02-03T14:21:11.229Z,10.48
2023-02-03T14:24:03.365Z,11.18
2023-02-03T14:26:38.424Z,12.10
2023-02-03T14:29:08.288Z,11.02
2023-02-03T14:31:59.919Z,11.02
2023-02-03T14:34:34.276Z,13.60
2023-02-03T14:37:19.118Z,12.35
2023-02-03T14:40:18.742Z,9.30
2023-02-03T14:43:25.188Z,11.75
2023-02-03T14:46:31.292Z,9.82
2023-02-03T14:49:14.844Z,10.45
2023-02-03T14:52:08.237Z,14.98
2023-02-03T14:54:52.455Z,11.15
2023-02-03T14:57:34.223Z,12.77
2023-02-03T15:00:05.606Z,9.98
2023-02-03T15:02:36.129Z,12.20
2023-02-03T15:05:37.958Z,10.40
2023-02-03T15:08:39.000Z,9.55
2023-02-03T15:11:29.863Z,9.40
2023-02-03T15:14:15.133Z,10.25
2023-02-03T15:16:45.211Z,12.45
2023-02-03T15:19:19.007Z,11.90
2023-02-03T15:21:47.477Z,9.45
2023-02-03T15:24:21.377Z,10.55
2023-02-03T15:26:52.209Z,9.70
2023-02-03T15:29:27.410Z,9.68
2023-02-03T15:32:04.941Z,10.95
2023-02-03T15:34:37.390Z,11.07
2023-02-03T15:37:10.909Z,11.75
2023-02-03T15:39:47.977Z,12.63
2023-02-03T15:42:23.439Z,10.45
2023-02-03T15:44:58.238Z,12.40
2023-02-03T15:47:31.697Z,10.15
2023-02-03T15:50:06.198Z,9.65
2023-02-03T15:52:40.677Z,11.10
2023-02-03T15:55:19.457Z,11.00
2023-02-03T15:57:51.096Z,9.73
2023-02-03T16:00:30.573Z,6.60
2023-02-03T16:03:00.997Z,3.90
2023-02-03T16:05:32.572Z,4.32
2023-02-03T16:08:37.238Z,5.43
2023-02-03T16:11:25.903Z,7.20
2023-02-03T16:13:55.756Z,3.00
2023-02-03T16:16:27.883Z,4.50
2023-02-03T16:18:58.187Z,3.88
2023-02-03T16:21:30.898Z,3.33
2023-02-03T16:23:59.457Z,4.85
2023-02-03T16:26:29.508Z,4.50
2023-02-03T16:29:30.829Z,4.50
2023-02-03T16:32:17.029Z,6.05
2023-02-03T16:35:02.544Z,5.10
2023-02-03T16:37:50.259Z,4.70
2023-02-03T16:40:38.165Z,6.30
2023-02-03T16:43:31.101Z,4.63
2023-02-03T16:46:18.689Z,4.93
2023-02-03T16:49:05.052Z,3.90
2023-02-03T16:51:39.937Z,4.03
2023-02-03T16:54:08.680Z,8.32
2023-02-03T16:56:36.697Z,5.50
2023-02-03T16:59:06.150Z,6.47
2023-02-03T17:01:34.129Z,5.60
2023-02-03T17:04:02.387Z,3.92
2023-02-03T17:06:30.955Z,4.47
2023-02-03T17:08:59.325Z,4.97
2023-02-03T17:11:27.869Z,5.13
2023-02-03T17:13:55.951Z,4.20
2023-02-03T17:16:27.848Z,5.15
2023-02-03T17:18:56.389Z,6.25
2023-02-03T17:21:27.252Z,3.58
2023-02-03T17:23:56.189Z,4.22
2023-02-03T17:26:24.189Z,4.55
2023-02-03T17:28:52.399Z,4.63
2023-02-03T17:31:21.598Z,4.38
2023-02-03T17:33:53.105Z,4.97
2023-02-03T17:36:22.500Z,5.25
2023-02-03T17:55:31.488Z,6.72
2023-02-03T17:57:59.608Z,7.47
2023-02-03T18:00:27.992Z,7.53
2023-02-03T18:02:57.560Z,6.93
2023-02-03T18:05:28.772Z,7.88
2023-02-03T18:07:57.278Z,7.43
2023-02-03T18:10:25.894Z,6.43
2023-02-03T18:12:53.877Z,9.68
2023-02-03T18:15:22.184Z,7.78
2023-02-03T18:17:50.153Z,9.65
2023-02-03T18:20:18.342Z,9.32
2023-02-03T18:22:47.673Z,9.48
2023-02-03T18:25:17.180Z,10.18
2023-02-03T18:27:45.482Z,11.57
2023-02-03T18:30:15.160Z,10.75
2023-02-03T18:32:44.005Z,10.52
2023-02-03T18:35:16.653Z,9.57
2023-02-03T18:37:44.671Z,7.53
2023-02-03T18:40:14.248Z,8.50
2023-02-03T18:42:42.300Z,7.50
2023-02-03T18:45:11.512Z,7.75
2023-02-03T18:47:40.152Z,7.95
2023-02-03T18:50:08.806Z,7.20
2023-02-03T18:52:37.915Z,6.22
2023-02-03T18:55:06.610Z,6.80
2023-02-03T18:57:35.936Z,5.07
2023-02-03T19:00:05.647Z,4.68
2023-02-03T19:02:34.311Z,6.15
2023-02-03T19:05:02.357Z,7.50
2023-02-03T19:07:30.341Z,5.72
2023-02-03T19:09:58.352Z,5.78
2023-02-03T19:12:27.540Z,8.45
2023-02-03T19:14:56.876Z,6.85
2023-02-03T19:17:24.812Z,8.02
2023-02-03T19:19:53.444Z,7.63
2023-02-03T19:22:21.494Z,7.07
2023-02-03T19:24:49.732Z,7.50
2023-02-03T19:27:18.193Z,8.85
2023-02-03T19:29:46.374Z,12.82
2023-02-03T19:32:15.906Z,10.95
2023-02-03T19:34:44.260Z,9.93
2023-02-03T19:37:12.335Z,6.60
2023-02-03T19:39:41.111Z,5.97
2023-02-03T19:42:09.326Z,9.95
2023-02-03T19:44:37.534Z,5.80
2023-02-03T19:47:06.466Z,5.40
2023-02-03T19:49:36.557Z,5.53
2023-02-03T19:52:05.231Z,7.75
2023-02-03T19:54:33.516Z,6.28
2023-02-03T19:57:01.832Z,5.50
2023-02-03T19:59:29.876Z,9.05
2023-02-03T20:02:01.703Z,6.35
2023-02-03T20:04:34.376Z,6.25
2023-02-03T20:07:03.997Z,5.63
2023-02-03T20:09:32.424Z,6.50
2023-02-03T20:12:00.922Z,6.93
2023-02-03T20:14:29.086Z,7.43
2023-02-03T20:16:57.265Z,5.53
2023-02-03T20:19:25.578Z,5.93
2023-02-03T20:21:53.795Z,5.65
2023-02-03T20:24:23.170Z,5.82
2023-02-03T20:26:51.202Z,5.78
2023-02-03T20:29:19.751Z,4.55
2023-02-03T20:31:47.871Z,6.07
2023-02-03T20:34:16.190Z,7.22
2023-02-03T20:36:44.733Z,6.10
2023-02-03T20:39:18.531Z,6.65
2023-02-03T20:41:49.799Z,6.05
2023-02-03T20:44:18.027Z,6.85
2023-02-03T20:46:46.831Z,6.60
2023-02-03T20:49:17.981Z,7.43
2023-02-03T20:51:46.452Z,9.38
2023-02-03T20:54:18.446Z,7.25
2023-02-03T20:56:48.051Z,6.90
2023-02-03T20:59:18.209Z,8.02
2023-02-03T21:01:47.275Z,7.32
2023-02-03T21:04:34.847Z,11.60
2023-02-03T21:07:13.497Z,9.02
2023-02-03T21:09:42.002Z,8.52
2023-02-03T21:12:13.813Z,7.15
2023-02-03T21:14:44.883Z,8.10
2023-02-03T21:17:18.862Z,6.43
2023-02-03T21:19:46.997Z,7.53
2023-02-03T21:22:19.000Z,7.07
2023-02-03T21:24:51.059Z,5.40
2023-02-03T21:27:29.246Z,6.05
2023-02-03T21:29:57.707Z,6.88
2023-02-03T21:32:29.971Z,7.45
2023-02-03T21:34:58.023Z,5.93
2023-02-03T21:37:39.286Z,5.55
2023-02-03T21:40:25.413Z,5.95
2023-02-03T21:42:55.492Z,5.43
2023-02-03T21:45:45.194Z,5.82
2023-02-03T21:48:36.192Z,5.72
2023-02-03T21:51:05.621Z,5.28
2023-02-03T21:53:36.140Z,5.72
2023-02-03T21:56:17.968Z,4.95
2023-02-03T21:58:50.541Z,4.50
2023-02-03T22:01:20.463Z,3.95
2023-02-03T22:03:51.212Z,4.25
2023-02-03T22:06:27.450Z,4.45
2023-02-03T22:08:56.834Z,4.10
2023-02-03T22:11:27.149Z,5.13
2023-02-03T22:13:56.665Z,4.18
2023-02-03T22:16:25.136Z,5.07
2023-02-03T22:18:53.172Z,7.43
2023-02-03T22:21:21.549Z,4.35
2023-02-03T22:23:50.048Z,4.30
2023-02-03T22:26:18.638Z,4.72
2023-02-03T22:28:47.080Z,3.80
2023-02-03T22:31:16.833Z,3.78
2023-02-03T22:33:45.333Z,4.18
2023-02-03T22:36:14.403Z,3.33
2023-02-03T22:38:43.523Z,3.78
2023-02-03T22:41:12.966Z,4.28
2023-02-03T22:43:42.111Z,2.75
2023-02-03T22:46:10.201Z,4.25
2023-02-03T22:48:39.629Z,3.90
2023-02-03T22:51:08.035Z,4.07
2023-02-03T22:53:36.318Z,3.28
2023-02-03T22:56:04.446Z,3.05
2023-02-03T22:58:32.787Z,3.97
2023-02-03T23:01:00.788Z,3.95
2023-02-03T23:03:31.938Z,3.65
2023-02-03T23:06:01.412Z,4.28
2023-02-03T23:08:29.748Z,3.03
2023-02-03T23:10:57.763Z,4.28
2023-02-03T23:13:25.860Z,2.92
2023-02-03T23:15:53.962Z,3.17
2023-02-03T23:18:22.318Z,2.67
2023-02-03T23:20:50.417Z,3.28
2023-02-03T23:23:19.790Z,4.45
2023-02-03T23:25:47.815Z,3.13
2023-02-03T23:28:16.172Z,2.92
2023-02-03T23:30:44.287Z,3.10
2023-02-03T23:33:12.322Z,3.10
2023-02-03T23:35:45.692Z,2.95
2023-02-03T23:38:14.116Z,3.38
2023-02-03T23:40:43.499Z,2.63
2023-02-03T23:43:11.747Z,4.55
2023-02-03T23:45:39.726Z,3.70
2023-02-03T23:48:08.232Z,3.80
2023-02-03T23:50:36.244Z,3.30
2023-02-03T23:53:04.571Z,3.38
2023-02-03T23:55:32.630Z,4.22
2023-02-03T23:58:02.009Z,4.35
